KRBG - Roseburg, Oregon, USA
Updated: Thu, 02-Apr-2020 8:53pm PDT
Mostly Cloudy
Mostly Cloudy
 Wind from N
Wind: N 3 mph , 6 km/h
Temperature: 46°F , 8°C
Dew Point: 36°F , 2°C
Humidity: 66%
Barometer: 30.22 inHg , 1023.4 hPa
Clouds: Mostly Cloudy
Visibility: 10 miles , 16 km
Cloud details: Few Clouds 3000 ft
Mostly Cloudy 4400 ft
Mostly Cloudy 7000 ft
2020/04/03 03:53 KRBG 030353Z AUTO 36003KT 10SM FEW030 BKN044 BKN070 08/02 A3022 RMK AO2 SLP236 T00830017

Metar display script from Saratoga-Weather.org